sensor_id;sensor_type;location;lat;lon;timestamp;pressure;altitude;pressure_sealevel;temperature;humidity
21588;BME280;10956;48.878;13.316;2023-03-14T00:00:58;92670.22;;;7.07;100.00
21588;BME280;10956;48.878;13.316;2023-03-14T00:03:24;92680.13;;;7.10;100.00
21588;BME280;10956;48.878;13.316;2023-03-14T00:05:49;92670.50;;;7.24;100.00
21588;BME280;10956;48.878;13.316;2023-03-14T00:08:15;92654.22;;;7.27;100.00
21588;BME280;10956;48.878;13.316;2023-03-14T00:10:40;92672.28;;;7.29;100.00
21588;BME280;10956;48.878;13.316;2023-03-14T00:13:06;92677.75;;;7.32;100.00
21588;BME280;10956;48.878;13.316;2023-03-14T00:15:34;92669.88;;;7.32;100.00
21588;BME280;10956;48.878;13.316;2023-03-14T00:18:00;92672.50;;;7.32;100.00
21588;BME280;10956;48.878;13.316;2023-03-14T00:20:26;92658.34;;;7.33;100.00
21588;BME280;10956;48.878;13.316;2023-03-14T00:22:52;92656.78;;;7.32;100.00
21588;BME280;10956;48.878;13.316;2023-03-14T00:25:18;92664.72;;;7.27;100.00
21588;BME280;10956;48.878;13.316;2023-03-14T00:27:43;92663.16;;;7.26;100.00
21588;BME280;10956;48.878;13.316;2023-03-14T00:30:09;92662.03;;;7.32;100.00
21588;BME280;10956;48.878;13.316;2023-03-14T00:32:35;92655.09;;;7.41;100.00
21588;BME280;10956;48.878;13.316;2023-03-14T00:35:01;92662.47;;;7.39;100.00
21588;BME280;10956;48.878;13.316;2023-03-14T00:37:27;92657.84;;;7.50;100.00
21588;BME280;10956;48.878;13.316;2023-03-14T00:39:52;92667.22;;;7.56;100.00
21588;BME280;10956;48.878;13.316;2023-03-14T00:42:18;92666.44;;;7.56;100.00
21588;BME280;10956;48.878;13.316;2023-03-14T00:44:43;92655.94;;;7.56;100.00
21588;BME280;10956;48.878;13.316;2023-03-14T00:47:09;92662.75;;;7.57;100.00
21588;BME280;10956;48.878;13.316;2023-03-14T00:49:34;92655.16;;;7.55;100.00
21588;BME280;10956;48.878;13.316;2023-03-14T00:52:00;92656.78;;;7.51;100.00
21588;BME280;10956;48.878;13.316;2023-03-14T00:54:26;92640.06;;;7.47;100.00
21588;BME280;10956;48.878;13.316;2023-03-14T00:56:51;92616.00;;;7.45;100.00
21588;BME280;10956;48.878;13.316;2023-03-14T00:59:17;92597.44;;;7.41;100.00
21588;BME280;10956;48.878;13.316;2023-03-14T01:01:43;92599.28;;;7.41;100.00
21588;BME280;10956;48.878;13.316;2023-03-14T01:04:09;92601.69;;;7.37;100.00
21588;BME280;10956;48.878;13.316;2023-03-14T01:06:34;92606.16;;;7.37;100.00
21588;BME280;10956;48.878;13.316;2023-03-14T01:09:00;92599.06;;;7.37;100.00
21588;BME280;10956;48.878;13.316;2023-03-14T01:11:31;92622.16;;;7.35;100.00
21588;BME280;10956;48.878;13.316;2023-03-14T01:13:57;92620.09;;;7.32;100.00
21588;BME280;10956;48.878;13.316;2023-03-14T01:16:24;92623.56;;;7.28;100.00
21588;BME280;10956;48.878;13.316;2023-03-14T01:18:50;92626.75;;;7.25;100.00
21588;BME280;10956;48.878;13.316;2023-03-14T01:21:19;92630.16;;;7.25;100.00
21588;BME280;10956;48.878;13.316;2023-03-14T01:23:46;92632.50;;;7.27;100.00
21588;BME280;10956;48.878;13.316;2023-03-14T01:26:14;92633.28;;;7.27;100.00
21588;BME280;10956;48.878;13.316;2023-03-14T01:28:40;92625.97;;;7.24;100.00
21588;BME280;10956;48.878;13.316;2023-03-14T01:31:08;92614.22;;;7.22;100.00
21588;BME280;10956;48.878;13.316;2023-03-14T01:33:35;92611.97;;;7.15;100.00
21588;BME280;10956;48.878;13.316;2023-03-14T01:36:01;92597.88;;;7.11;100.00
21588;BME280;10956;48.878;13.316;2023-03-14T01:38:30;92569.13;;;7.06;100.00
21588;BME280;10956;48.878;13.316;2023-03-14T01:40:56;92558.50;;;6.97;100.00
21588;BME280;10956;48.878;13.316;2023-03-14T01:43:22;92557.22;;;6.95;100.00
21588;BME280;10956;48.878;13.316;2023-03-14T01:48:39;92579.19;;;6.99;100.00
21588;BME280;10956;48.878;13.316;2023-03-14T01:51:11;92586.53;;;6.97;100.00
21588;BME280;10956;48.878;13.316;2023-03-14T01:53:39;92600.13;;;6.99;100.00
21588;BME280;10956;48.878;13.316;2023-03-14T01:56:07;92614.22;;;7.03;100.00
21588;BME280;10956;48.878;13.316;2023-03-14T01:58:35;92611.03;;;7.06;100.00
21588;BME280;10956;48.878;13.316;2023-03-14T02:01:01;92598.22;;;7.04;100.00
21588;BME280;10956;48.878;13.316;2023-03-14T02:03:29;92596.31;;;7.10;100.00
21588;BME280;10956;48.878;13.316;2023-03-14T02:05:59;92586.63;;;7.10;100.00
21588;BME280;10956;48.878;13.316;2023-03-14T02:08:29;92588.38;;;7.15;100.00
21588;BME280;10956;48.878;13.316;2023-03-14T02:10:56;92578.25;;;7.08;100.00
21588;BME280;10956;48.878;13.316;2023-03-14T02:13:22;92589.09;;;7.02;100.00
21588;BME280;10956;48.878;13.316;2023-03-14T02:15:48;92603.31;;;6.96;100.00
21588;BME280;10956;48.878;13.316;2023-03-14T02:18:14;92610.53;;;7.04;100.00
21588;BME280;10956;48.878;13.316;2023-03-14T02:23:59;92616.97;;;6.93;100.00
21588;BME280;10956;48.878;13.316;2023-03-14T02:26:43;92622.63;;;7.00;100.00
21588;BME280;10956;48.878;13.316;2023-03-14T02:29:09;92624.06;;;7.11;100.00
21588;BME280;10956;48.878;13.316;2023-03-14T02:31:35;92625.47;;;7.22;100.00
21588;BME280;10956;48.878;13.316;2023-03-14T02:34:01;92627.47;;;7.30;100.00
21588;BME280;10956;48.878;13.316;2023-03-14T02:36:28;92633.13;;;7.37;100.00
21588;BME280;10956;48.878;13.316;2023-03-14T02:39:15;92631.56;;;7.36;100.00
21588;BME280;10956;48.878;13.316;2023-03-14T02:41:43;92642.41;;;7.49;100.00
21588;BME280;10956;48.878;13.316;2023-03-14T02:44:10;92640.06;;;7.47;100.00
21588;BME280;10956;48.878;13.316;2023-03-14T02:46:35;92640.00;;;7.52;100.00
21588;BME280;10956;48.878;13.316;2023-03-14T02:49:03;92643.91;;;7.55;100.00
21588;BME280;10956;48.878;13.316;2023-03-14T02:51:29;92644.09;;;7.58;100.00
21588;BME280;10956;48.878;13.316;2023-03-14T02:53:55;92639.06;;;7.62;100.00
21588;BME280;10956;48.878;13.316;2023-03-14T02:56:21;92639.06;;;7.62;100.00
21588;BME280;10956;48.878;13.316;2023-03-14T02:58:46;92635.69;;;7.61;100.00
21588;BME280;10956;48.878;13.316;2023-03-14T03:01:12;92636.19;;;7.63;100.00
21588;BME280;10956;48.878;13.316;2023-03-14T03:03:37;92639.06;;;7.62;100.00
21588;BME280;10956;48.878;13.316;2023-03-14T03:06:03;92634.97;;;7.56;100.00
21588;BME280;10956;48.878;13.316;2023-03-14T03:08:29;92629.72;;;7.56;100.00
21588;BME280;10956;48.878;13.316;2023-03-14T03:10:55;92620.31;;;7.55;100.00
21588;BME280;10956;48.878;13.316;2023-03-14T03:13:21;92616.13;;;7.54;100.00
21588;BME280;10956;48.878;13.316;2023-03-14T03:15:47;92603.72;;;7.59;100.00
21588;BME280;10956;48.878;13.316;2023-03-14T03:18:12;92602.53;;;7.52;100.00
21588;BME280;10956;48.878;13.316;2023-03-14T03:20:38;92604.31;;;7.56;100.00
21588;BME280;10956;48.878;13.316;2023-03-14T03:23:04;92599.75;;;7.62;100.00
21588;BME280;10956;48.878;13.316;2023-03-14T03:25:30;92605.00;;;7.62;100.00
21588;BME280;10956;48.878;13.316;2023-03-14T03:27:56;92604.16;;;7.66;100.00
21588;BME280;10956;48.878;13.316;2023-03-14T03:30:21;92604.44;;;7.65;100.00
21588;BME280;10956;48.878;13.316;2023-03-14T03:32:47;92608.19;;;7.59;100.00
21588;BME280;10956;48.878;13.316;2023-03-14T03:35:13;92599.84;;;7.57;100.00
21588;BME280;10956;48.878;13.316;2023-03-14T03:37:39;92586.53;;;7.53;100.00
21588;BME280;10956;48.878;13.316;2023-03-14T03:40:05;92594.88;;;7.55;100.00
21588;BME280;10956;48.878;13.316;2023-03-14T03:42:32;92592.03;;;7.52;100.00
21588;BME280;10956;48.878;13.316;2023-03-14T03:44:58;92583.69;;;7.50;100.00
21588;BME280;10956;48.878;13.316;2023-03-14T03:47:23;92580.56;;;7.48;100.00
21588;BME280;10956;48.878;13.316;2023-03-14T03:49:49;92579.03;;;7.47;100.00
21588;BME280;10956;48.878;13.316;2023-03-14T03:52:14;92582.22;;;7.43;100.00
21588;BME280;10956;48.878;13.316;2023-03-14T03:54:40;92585.69;;;7.39;100.00
21588;BME280;10956;48.878;13.316;2023-03-14T03:57:05;92584.63;;;7.40;100.00
21588;BME280;10956;48.878;13.316;2023-03-14T03:59:31;92599.00;;;7.42;100.00
21588;BME280;10956;48.878;13.316;2023-03-14T04:01:56;92590.06;;;7.43;100.00
21588;BME280;10956;48.878;13.316;2023-03-14T04:04:21;92582.78;;;7.40;100.00
21588;BME280;10956;48.878;13.316;2023-03-14T04:06:47;92571.22;;;7.41;100.00
21588;BME280;10956;48.878;13.316;2023-03-14T04:09:12;92575.34;;;7.48;100.00
21588;BME280;10956;48.878;13.316;2023-03-14T04:11:38;92560.59;;;7.52;100.00
21588;BME280;10956;48.878;13.316;2023-03-14T04:14:04;92561.38;;;7.52;100.00
21588;BME280;10956;48.878;13.316;2023-03-14T04:16:30;92567.41;;;7.53;100.00
21588;BME280;10956;48.878;13.316;2023-03-14T04:18:59;92571.84;;;7.52;100.00
21588;BME280;10956;48.878;13.316;2023-03-14T04:21:25;92570.03;;;7.53;100.00
21588;BME280;10956;48.878;13.316;2023-03-14T04:23:50;92566.25;;;7.59;100.00
21588;BME280;10956;48.878;13.316;2023-03-14T04:26:16;92568.09;;;7.58;100.00
21588;BME280;10956;48.878;13.316;2023-03-14T04:28:41;92582.47;;;7.61;100.00
21588;BME280;10956;48.878;13.316;2023-03-14T04:33:33;92578.50;;;7.63;100.00
21588;BME280;10956;48.878;13.316;2023-03-14T04:35:59;92581.34;;;7.67;100.00
21588;BME280;10956;48.878;13.316;2023-03-14T04:38:24;92580.25;;;7.68;100.00
21588;BME280;10956;48.878;13.316;2023-03-14T04:40:50;92576.38;;;7.65;100.00
21588;BME280;10956;48.878;13.316;2023-03-14T04:43:15;92571.13;;;7.65;100.00
21588;BME280;10956;48.878;13.316;2023-03-14T04:45:41;92570.56;;;7.68;100.00
21588;BME280;10956;48.878;13.316;2023-03-14T04:48:07;92576.38;;;7.65;100.00
21588;BME280;10956;48.878;13.316;2023-03-14T04:50:32;92564.31;;;7.64;100.00
21588;BME280;10956;48.878;13.316;2023-03-14T04:52:58;92561.41;;;7.66;100.00
21588;BME280;10956;48.878;13.316;2023-03-14T04:55:23;92573.47;;;7.67;100.00
21588;BME280;10956;48.878;13.316;2023-03-14T04:57:49;92577.06;;;7.71;100.00
21588;BME280;10956;48.878;13.316;2023-03-14T05:00:15;92565.59;;;7.67;100.00
21588;BME280;10956;48.878;13.316;2023-03-14T05:02:43;92565.47;;;7.58;100.00
21588;BME280;10956;48.878;13.316;2023-03-14T05:05:09;92569.94;;;7.58;100.00
21588;BME280;10956;48.878;13.316;2023-03-14T05:07:35;92565.09;;;7.65;100.00
21588;BME280;10956;48.878;13.316;2023-03-14T05:10:00;92565.09;;;7.65;100.00
21588;BME280;10956;48.878;13.316;2023-03-14T05:12:25;92577.06;;;7.71;100.00
21588;BME280;10956;48.878;13.316;2023-03-14T05:14:51;92570.34;;;7.65;100.00
21588;BME280;10956;48.878;13.316;2023-03-14T05:17:16;92563.25;;;7.65;100.00
21588;BME280;10956;48.878;13.316;2023-03-14T05:19:43;92569.78;;;7.68;100.00
21588;BME280;10956;48.878;13.316;2023-03-14T05:22:08;92567.44;;;7.66;100.00
21588;BME280;10956;48.878;13.316;2023-03-14T05:24:33;92557.75;;;7.67;100.00
21588;BME280;10956;48.878;13.316;2023-03-14T05:26:59;92557.25;;;7.65;100.00
21588;BME280;10956;48.878;13.316;2023-03-14T05:29:24;92552.22;;;7.68;100.00
21588;BME280;10956;48.878;13.316;2023-03-14T05:31:50;92554.25;;;7.71;100.00
21588;BME280;10956;48.878;13.316;2023-03-14T05:34:15;92555.03;;;7.72;100.00
21588;BME280;10956;48.878;13.316;2023-03-14T05:36:41;92558.72;;;7.71;100.00
21588;BME280;10956;48.878;13.316;2023-03-14T05:39:06;92555.03;;;7.72;100.00
21588;BME280;10956;48.878;13.316;2023-03-14T05:41:31;92558.34;;;7.77;100.00
21588;BME280;10956;48.878;13.316;2023-03-14T05:43:57;92556.50;;;7.78;100.00
21588;BME280;10956;48.878;13.316;2023-03-14T05:46:22;92561.84;;;7.73;100.00
21588;BME280;10956;48.878;13.316;2023-03-14T05:48:48;92553.88;;;7.78;100.00
21588;BME280;10956;48.878;13.316;2023-03-14T05:51:13;92559.63;;;7.80;100.00
21588;BME280;10956;48.878;13.316;2023-03-14T05:53:39;92556.41;;;7.83;100.00
21588;BME280;10956;48.878;13.316;2023-03-14T05:56:04;92557.41;;;7.87;100.00
21588;BME280;10956;48.878;13.316;2023-03-14T05:58:30;92558.94;;;7.88;100.00
21588;BME280;10956;48.878;13.316;2023-03-14T06:00:55;92556.81;;;7.90;100.00
21588;BME280;10956;48.878;13.316;2023-03-14T06:03:21;92547.88;;;7.91;100.00
21588;BME280;10956;48.878;13.316;2023-03-14T06:05:49;92548.66;;;7.92;100.00
21588;BME280;10956;48.878;13.316;2023-03-14T06:08:15;92554.69;;;7.92;100.00
21588;BME280;10956;48.878;13.316;2023-03-14T06:10:40;92561.50;;;7.93;100.00
21588;BME280;10956;48.878;13.316;2023-03-14T06:13:06;92557.22;;;7.97;100.00
21588;BME280;10956;48.878;13.316;2023-03-14T06:15:31;92553.03;;;7.96;100.00
21588;BME280;10956;48.878;13.316;2023-03-14T06:17:58;92554.13;;;7.95;100.00
21588;BME280;10956;48.878;13.316;2023-03-14T06:20:23;92553.72;;;7.88;100.00
21588;BME280;10956;48.878;13.316;2023-03-14T06:22:49;92547.50;;;7.84;100.00
21588;BME280;10956;48.878;13.316;2023-03-14T06:25:14;92553.22;;;7.86;100.00
21588;BME280;10956;48.878;13.316;2023-03-14T06:27:40;92546.91;;;7.87;100.00
21588;BME280;10956;48.878;13.316;2023-03-14T06:30:06;92538.56;;;7.85;100.00
21588;BME280;10956;48.878;13.316;2023-03-14T06:32:31;92538.75;;;7.89;100.00
21588;BME280;10956;48.878;13.316;2023-03-14T06:34:57;92531.75;;;7.84;100.00
21588;BME280;10956;48.878;13.316;2023-03-14T06:37:26;92536.41;;;7.87;100.00
21588;BME280;10956;48.878;13.316;2023-03-14T06:39:53;92530.09;;;7.88;100.00
21588;BME280;10956;48.878;13.316;2023-03-14T06:42:18;92527.00;;;7.86;100.00
21588;BME280;10956;48.878;13.316;2023-03-14T06:44:43;92522.72;;;7.90;100.00
21588;BME280;10956;48.878;13.316;2023-03-14T06:47:09;92527.50;;;7.88;100.00
21588;BME280;10956;48.878;13.316;2023-03-14T06:49:34;92518.56;;;7.89;100.00
21588;BME280;10956;48.878;13.316;2023-03-14T06:52:00;92513.88;;;7.86;100.00
21588;BME280;10956;48.878;13.316;2023-03-14T06:54:25;92523.88;;;7.84;100.00
21588;BME280;10956;48.878;13.316;2023-03-14T06:56:51;92527.50;;;7.88;100.00
21588;BME280;10956;48.878;13.316;2023-03-14T06:59:16;92527.09;;;7.81;100.00
21588;BME280;10956;48.878;13.316;2023-03-14T07:01:41;92527.09;;;7.81;100.00
21588;BME280;10956;48.878;13.316;2023-03-14T07:04:08;92532.31;;;7.81;100.00
21588;BME280;10956;48.878;13.316;2023-03-14T07:06:34;92535.44;;;7.83;100.00
21588;BME280;10956;48.878;13.316;2023-03-14T07:08:59;92541.66;;;7.87;100.00
21588;BME280;10956;48.878;13.316;2023-03-14T07:11:25;92534.88;;;7.86;100.00
21588;BME280;10956;48.878;13.316;2023-03-14T07:13:51;92541.66;;;7.87;100.00
21588;BME280;10956;48.878;13.316;2023-03-14T07:16:17;92541.09;;;7.90;100.00
21588;BME280;10956;48.878;13.316;2023-03-14T07:18:42;92535.84;;;7.90;100.00
21588;BME280;10956;48.878;13.316;2023-03-14T07:21:08;92535.84;;;7.90;100.00
21588;BME280;10956;48.878;13.316;2023-03-14T07:23:34;92548.47;;;7.88;100.00
21588;BME280;10956;48.878;13.316;2023-03-14T07:26:01;92546.63;;;7.89;100.00
21588;BME280;10956;48.878;13.316;2023-03-14T07:28:27;92546.03;;;7.92;100.00
21588;BME280;10956;48.878;13.316;2023-03-14T07:30:53;92534.13;;;7.99;100.00
21588;BME280;10956;48.878;13.316;2023-03-14T07:33:18;92530.63;;;8.04;100.00
21588;BME280;10956;48.878;13.316;2023-03-14T07:35:46;92536.66;;;8.04;100.00
21588;BME280;10956;48.878;13.316;2023-03-14T07:38:12;92536.72;;;7.99;100.00
21588;BME280;10956;48.878;13.316;2023-03-14T07:40:38;92532.94;;;8.05;100.00
21588;BME280;10956;48.878;13.316;2023-03-14T07:43:03;92529.84;;;8.17;100.00
21588;BME280;10956;48.878;13.316;2023-03-14T07:45:28;92527.53;;;8.16;100.00
21588;BME280;10956;48.878;13.316;2023-03-14T07:47:54;92526.06;;;8.23;100.00
21588;BME280;10956;48.878;13.316;2023-03-14T07:50:23;92527.34;;;8.26;100.00
21588;BME280;10956;48.878;13.316;2023-03-14T07:52:49;92525.78;;;8.25;100.00
21588;BME280;10956;48.878;13.316;2023-03-14T07:55:14;92526.84;;;8.24;100.00
21588;BME280;10956;48.878;13.316;2023-03-14T07:57:40;92527.63;;;8.24;100.00
21588;BME280;10956;48.878;13.316;2023-03-14T08:00:07;92539.09;;;8.28;100.00
21588;BME280;10956;48.878;13.316;2023-03-14T08:02:32;92536.09;;;8.35;100.00
21588;BME280;10956;48.878;13.316;2023-03-14T08:04:58;92548.25;;;8.45;100.00
21588;BME280;10956;48.878;13.316;2023-03-14T08:07:23;92548.34;;;8.67;100.00
21588;BME280;10956;48.878;13.316;2023-03-14T08:09:49;92543.47;;;8.88;100.00
21588;BME280;10956;48.878;13.316;2023-03-14T08:12:15;92538.94;;;9.02;100.00
21588;BME280;10956;48.878;13.316;2023-03-14T08:14:41;92542.81;;;9.18;100.00
21588;BME280;10956;48.878;13.316;2023-03-14T08:17:07;92547.69;;;9.11;100.00
21588;BME280;10956;48.878;13.316;2023-03-14T08:19:33;92551.00;;;9.03;100.00
21588;BME280;10956;48.878;13.316;2023-03-14T08:21:59;92555.13;;;8.82;100.00
21588;BME280;10956;48.878;13.316;2023-03-14T08:24:24;92554.28;;;8.72;100.00
21588;BME280;10956;48.878;13.316;2023-03-14T08:26:50;92562.44;;;8.71;100.00
21588;BME280;10956;48.878;13.316;2023-03-14T08:29:15;92561.78;;;8.52;100.00
21588;BME280;10956;48.878;13.316;2023-03-14T08:31:41;92558.09;;;8.39;100.00
21588;BME280;10956;48.878;13.316;2023-03-14T08:34:06;92560.13;;;8.42;100.00
21588;BME280;10956;48.878;13.316;2023-03-14T08:36:32;92565.75;;;8.49;100.00
21588;BME280;10956;48.878;13.316;2023-03-14T08:38:58;92555.25;;;8.49;100.00
21588;BME280;10956;48.878;13.316;2023-03-14T08:41:23;92558.38;;;8.51;100.00
21588;BME280;10956;48.878;13.316;2023-03-14T08:43:49;92552.81;;;8.66;100.00
21588;BME280;10956;48.878;13.316;2023-03-14T08:46:15;92546.09;;;8.74;100.00
21588;BME280;10956;48.878;13.316;2023-03-14T08:48:40;92553.38;;;8.91;100.00
21588;BME280;10956;48.878;13.316;2023-03-14T08:51:11;92551.59;;;9.00;100.00
21588;BME280;10956;48.878;13.316;2023-03-14T08:53:38;92547.91;;;9.01;100.00
21588;BME280;10956;48.878;13.316;2023-03-14T08:56:04;92544.88;;;9.07;100.00
21588;BME280;10956;48.878;13.316;2023-03-14T08:58:31;92547.88;;;9.15;100.00
21588;BME280;10956;48.878;13.316;2023-03-14T09:00:57;92541.84;;;9.14;100.00
21588;BME280;10956;48.878;13.316;2023-03-14T09:03:24;92536.53;;;9.28;100.00
21588;BME280;10956;48.878;13.316;2023-03-14T09:05:50;92538.06;;;9.43;100.00
21588;BME280;10956;48.878;13.316;2023-03-14T09:08:16;92536.63;;;9.59;100.00
21588;BME280;10956;48.878;13.316;2023-03-14T09:10:41;92536.06;;;9.70;100.00
21588;BME280;10956;48.878;13.316;2023-03-14T09:13:07;92536.00;;;9.84;100.00
21588;BME280;10956;48.878;13.316;2023-03-14T09:15:33;92526.47;;;9.97;100.00
21588;BME280;10956;48.878;13.316;2023-03-14T09:17:59;92539.06;;;10.09;100.00
21588;BME280;10956;48.878;13.316;2023-03-14T09:20:25;92538.16;;;10.13;100.00
21588;BME280;10956;48.878;13.316;2023-03-14T09:22:50;92534.75;;;10.13;100.00
21588;BME280;10956;48.878;13.316;2023-03-14T09:25:16;92538.72;;;10.01;100.00
21588;BME280;10956;48.878;13.316;2023-03-14T09:27:41;92520.63;;;10.00;100.00
21588;BME280;10956;48.878;13.316;2023-03-14T09:30:08;92535.84;;;10.12;100.00
21588;BME280;10956;48.878;13.316;2023-03-14T09:32:33;92522.66;;;10.34;100.00
21588;BME280;10956;48.878;13.316;2023-03-14T09:34:59;92535.53;;;10.44;100.00
21588;BME280;10956;48.878;13.316;2023-03-14T09:37:24;92529.66;;;10.47;100.00
21588;BME280;10956;48.878;13.316;2023-03-14T09:39:50;92531.66;;;10.42;100.00
21588;BME280;10956;48.878;13.316;2023-03-14T09:42:18;92539.66;;;10.28;100.00
21588;BME280;10956;48.878;13.316;2023-03-14T09:45:02;92545.66;;;10.20;100.00
21588;BME280;10956;48.878;13.316;2023-03-14T09:47:33;92546.25;;;10.17;100.00
21588;BME280;10956;48.878;13.316;2023-03-14T09:50:01;92549.00;;;10.12;100.00
21588;BME280;10956;48.878;13.316;2023-03-14T09:52:31;92544.34;;;10.09;100.00
21588;BME280;10956;48.878;13.316;2023-03-14T09:58:04;92539.97;;;9.73;100.00
21588;BME280;10956;48.878;13.316;2023-03-14T10:00:36;92547.84;;;9.73;100.00
21588;BME280;10956;48.878;13.316;2023-03-14T10:05:36;92556.50;;;9.96;100.00
21588;BME280;10956;48.878;13.316;2023-03-14T10:08:02;92555.94;;;10.08;100.00
21588;BME280;10956;48.878;13.316;2023-03-14T10:10:28;92554.59;;;10.19;100.00
21588;BME280;10956;48.878;13.316;2023-03-14T10:15:41;92545.63;;;10.51;100.00
21588;BME280;10956;48.878;13.316;2023-03-14T10:18:12;92539.81;;;10.71;100.00
21588;BME280;10956;48.878;13.316;2023-03-14T10:20:42;92545.13;;;10.97;100.00
21588;BME280;10956;48.878;13.316;2023-03-14T10:25:42;92535.06;;;10.99;100.00
21588;BME280;10956;48.878;13.316;2023-03-14T10:30:49;92539.28;;;11.09;100.00
21588;BME280;10956;48.878;13.316;2023-03-14T10:35:43;92542.50;;;10.97;100.00
21588;BME280;10956;48.878;13.316;2023-03-14T10:38:14;92534.13;;;10.95;100.00
21588;BME280;10956;48.878;13.316;2023-03-14T10:40:46;92537.84;;;10.94;100.00
21588;BME280;10956;48.878;13.316;2023-03-14T10:43:17;92536.44;;;10.88;100.00
21588;BME280;10956;48.878;13.316;2023-03-14T10:45:57;92533.34;;;10.86;100.00
21588;BME280;10956;48.878;13.316;2023-03-14T10:48:32;92542.28;;;10.67;100.00
21588;BME280;10956;48.878;13.316;2023-03-14T10:51:05;92538.03;;;10.49;100.00
21588;BME280;10956;48.878;13.316;2023-03-14T10:56:06;92527.81;;;10.48;100.00
21588;BME280;10956;48.878;13.316;2023-03-14T10:58:38;92530.56;;;10.34;100.00
21588;BME280;10956;48.878;13.316;2023-03-14T11:07:08;92526.72;;;10.49;100.00
21588;BME280;10956;48.878;13.316;2023-03-14T11:09:46;92521.78;;;10.56;100.00
21588;BME280;10956;48.878;13.316;2023-03-14T11:14:48;92516.13;;;10.80;100.00
21588;BME280;10956;48.878;13.316;2023-03-14T11:17:24;92517.06;;;10.84;100.00
21588;BME280;10956;48.878;13.316;2023-03-14T11:22:39;92507.06;;;10.46;100.00
21588;BME280;10956;48.878;13.316;2023-03-14T11:27:42;92504.06;;;9.99;100.00
21588;BME280;10956;48.878;13.316;2023-03-14T11:30:17;92518.00;;;9.78;100.00
21588;BME280;10956;48.878;13.316;2023-03-14T11:38:30;92502.06;;;10.05;100.00
21588;BME280;10956;48.878;13.316;2023-03-14T11:41:17;92508.50;;;9.90;100.00
21588;BME280;10956;48.878;13.316;2023-03-14T11:43:49;92506.63;;;9.91;100.00
21588;BME280;10956;48.878;13.316;2023-03-14T11:46:26;92498.88;;;10.17;100.00
21588;BME280;10956;48.878;13.316;2023-03-14T11:51:36;92496.41;;;10.68;100.00
21588;BME280;10956;48.878;13.316;2023-03-14T11:56:43;92490.31;;;10.42;100.00
21588;BME280;10956;48.878;13.316;2023-03-14T11:59:21;92491.63;;;10.22;100.00
21588;BME280;10956;48.878;13.316;2023-03-14T12:02:01;92488.88;;;9.96;100.00
21588;BME280;10956;48.878;13.316;2023-03-14T12:04:39;92484.47;;;9.83;100.00
21588;BME280;10956;48.878;13.316;2023-03-14T12:07:23;92480.59;;;9.81;100.00
21588;BME280;10956;48.878;13.316;2023-03-14T12:09:51;92480.13;;;9.79;100.00
21588;BME280;10956;48.878;13.316;2023-03-14T12:12:23;92469.28;;;9.80;100.00
21588;BME280;10956;48.878;13.316;2023-03-14T12:14:56;92472.56;;;9.86;100.00
21588;BME280;10956;48.878;13.316;2023-03-14T12:17:41;92480.94;;;9.88;100.00
21588;BME280;10956;48.878;13.316;2023-03-14T12:20:36;92473.47;;;9.81;100.00
21588;BME280;10956;48.878;13.316;2023-03-14T12:23:27;92478.59;;;9.86;100.00
21588;BME280;10956;48.878;13.316;2023-03-14T12:28:39;92475.75;;;9.74;100.00
21588;BME280;10956;48.878;13.316;2023-03-14T12:39:58;92471.97;;;9.58;100.00
21588;BME280;10956;48.878;13.316;2023-03-14T12:43:03;92460.84;;;9.61;100.00
21588;BME280;10956;48.878;13.316;2023-03-14T12:45:35;92462.50;;;9.57;100.00
21588;BME280;10956;48.878;13.316;2023-03-14T12:50:52;92473.41;;;9.42;100.00
21588;BME280;10956;48.878;13.316;2023-03-14T12:53:32;92461.63;;;9.39;100.00
21588;BME280;10956;48.878;13.316;2023-03-14T12:59:10;92463.84;;;9.46;100.00
21588;BME280;10956;48.878;13.316;2023-03-14T13:01:56;92464.91;;;9.45;100.00
21588;BME280;10956;48.878;13.316;2023-03-14T13:04:35;92460.84;;;9.38;100.00
21588;BME280;10956;48.878;13.316;2023-03-14T13:07:03;92463.13;;;9.31;100.00
21588;BME280;10956;48.878;13.316;2023-03-14T13:11:56;92453.47;;;9.18;100.00
21588;BME280;10956;48.878;13.316;2023-03-14T13:14:27;92449.47;;;9.21;100.00
21588;BME280;10956;48.878;13.316;2023-03-14T13:16:53;92451.00;;;9.22;100.00
21588;BME280;10956;48.878;13.316;2023-03-14T13:19:23;92436.78;;;9.23;100.00
21588;BME280;10956;48.878;13.316;2023-03-14T13:21:51;92447.00;;;9.24;100.00
21588;BME280;10956;48.878;13.316;2023-03-14T13:24:25;92439.25;;;9.19;100.00
21588;BME280;10956;48.878;13.316;2023-03-14T13:26:55;92438.88;;;9.12;100.00
21588;BME280;10956;48.878;13.316;2023-03-14T13:31:48;92445.56;;;8.96;100.00
21588;BME280;10956;48.878;13.316;2023-03-14T13:34:14;92451.19;;;9.03;100.00
21588;BME280;10956;48.878;13.316;2023-03-14T13:36:40;92446.28;;;9.10;100.00
21588;BME280;10956;48.878;13.316;2023-03-14T13:39:31;92446.78;;;9.12;100.00
21588;BME280;10956;48.878;13.316;2023-03-14T13:41:59;92451.66;;;9.05;100.00
21588;BME280;10956;48.878;13.316;2023-03-14T13:44:34;92459.38;;;9.01;100.00
21588;BME280;10956;48.878;13.316;2023-03-14T13:47:01;92463.47;;;8.94;100.00
21588;BME280;10956;48.878;13.316;2023-03-14T13:49:29;92453.56;;;8.91;100.00
21588;BME280;10956;48.878;13.316;2023-03-14T13:51:56;92459.19;;;8.98;100.00
21588;BME280;10956;48.878;13.316;2023-03-14T13:54:22;92460.31;;;9.05;100.00
21588;BME280;10956;48.878;13.316;2023-03-14T13:56:48;92450.94;;;9.13;100.00
21588;BME280;10956;48.878;13.316;2023-03-14T13:59:25;92450.47;;;9.33;100.00
21588;BME280;10956;48.878;13.316;2023-03-14T14:01:52;92446.56;;;9.53;100.00
21588;BME280;10956;48.878;13.316;2023-03-14T14:04:20;92434.59;;;9.69;100.00